Terminal Aerodrome Forecast
Issued by NWS

Home | Current Version | Previous Version | Graphics & Text | Print | Product List | Glossary On
Versions: 1 2 3 4 5 6 7 8 9 10 11 12 13 14 15
000
FTUS43 KBIS 181700
TAFMOT
TAF
KMOT 181737Z 1818/1918 16014G22KT P6SM SCT012
     FM181900 16015KT P6SM SCT250
     FM190400 20010KT P6SM SCT120
     FM191600 29010KT P6SM SKC=

USA.gov is the U.S. government's official web portal to all federal, state and local government web resources and services.